createdAt,value
2022-08-28T00:02:07.374Z,19.83
2022-08-28T00:04:55.794Z,19.83
2022-08-28T00:07:47.866Z,19.98
2022-08-28T00:10:39.871Z,19.91
2022-08-28T00:13:28.436Z,19.82
2022-08-28T00:16:18.180Z,19.99
2022-08-28T00:19:07.401Z,20.12
2022-08-28T00:21:55.706Z,20.24
2022-08-28T00:24:45.886Z,20.47
2022-08-28T00:27:51.520Z,20.41
2022-08-28T00:30:42.360Z,20.62
2022-08-28T00:33:33.915Z,20.51
2022-08-28T00:36:22.321Z,20.43
2022-08-28T00:39:11.118Z,20.23
2022-08-28T00:42:00.872Z,20.12
2022-08-28T00:44:49.564Z,20.30
2022-08-28T00:47:39.285Z,20.34
2022-08-28T00:50:30.343Z,20.52
2022-08-28T00:53:18.826Z,20.90
2022-08-28T00:56:13.357Z,21.22
2022-08-28T00:59:11.502Z,21.54
2022-08-28T01:02:00.672Z,21.68
2022-08-28T01:04:50.790Z,21.29
2022-08-28T01:07:40.298Z,21.68
2022-08-28T01:10:31.771Z,21.87
2022-08-28T01:13:20.351Z,22.11
2022-08-28T01:16:10.441Z,22.09
2022-08-28T01:19:00.496Z,22.13
2022-08-28T01:21:56.053Z,22.23
2022-08-28T01:24:46.345Z,22.21
2022-08-28T01:27:34.921Z,22.28
2022-08-28T01:30:25.610Z,22.33
2022-08-28T01:33:14.595Z,22.40
2022-08-28T01:36:03.227Z,22.41
2022-08-28T01:38:57.551Z,22.42
2022-08-28T01:41:51.954Z,22.39
2022-08-28T01:44:40.244Z,22.45
2022-08-28T01:47:28.548Z,22.44
2022-08-28T01:50:20.547Z,22.45
2022-08-28T01:53:12.347Z,22.47
2022-08-28T01:56:02.319Z,22.51
2022-08-28T01:58:54.215Z,22.52
2022-08-28T02:01:43.746Z,22.50
2022-08-28T02:04:32.228Z,22.38
2022-08-28T02:07:20.914Z,22.40
2022-08-28T02:10:12.022Z,22.43
2022-08-28T02:13:01.436Z,22.34
2022-08-28T02:15:52.021Z,22.33
2022-08-28T02:18:40.389Z,21.92
2022-08-28T02:21:28.785Z,21.83
2022-08-28T02:24:17.933Z,22.21
2022-08-28T02:27:07.374Z,22.19
2022-08-28T02:29:56.010Z,22.25
2022-08-28T02:32:46.267Z,22.27
2022-08-28T02:35:34.735Z,22.26
2022-08-28T02:38:23.800Z,22.15
2022-08-28T02:41:13.095Z,22.19
2022-08-28T02:44:01.452Z,22.17
2022-08-28T02:46:49.812Z,22.15
2022-08-28T02:49:39.540Z,22.06
2022-08-28T02:52:27.848Z,22.12
2022-08-28T02:55:18.752Z,22.13
2022-08-28T02:58:09.729Z,22.18
2022-08-28T03:00:58.263Z,22.27
2022-08-28T03:03:47.488Z,22.20
2022-08-28T03:06:37.238Z,22.22
2022-08-28T03:09:25.540Z,22.30
2022-08-28T03:12:14.556Z,22.38
2022-08-28T03:15:03.424Z,21.55
2022-08-28T03:17:51.829Z,21.23
2022-08-28T03:20:40.411Z,21.48
2022-08-28T03:23:30.424Z,21.81
2022-08-28T03:26:21.144Z,21.90
2022-08-28T03:29:09.412Z,22.00
2022-08-28T03:31:58.202Z,22.02
2022-08-28T03:34:46.840Z,22.10
2022-08-28T03:37:35.832Z,22.13
2022-08-28T03:40:25.974Z,22.16
2022-08-28T03:43:16.291Z,22.22
2022-08-28T03:46:07.596Z,22.25
2022-08-28T03:48:56.648Z,22.24
2022-08-28T03:51:45.154Z,22.09
2022-08-28T03:54:33.393Z,21.90
2022-08-28T03:57:24.104Z,21.79
2022-08-28T04:00:14.273Z,21.69
2022-08-28T04:03:02.616Z,21.88
2022-08-28T04:05:51.880Z,21.84
2022-08-28T04:08:40.439Z,21.79
2022-08-28T04:11:29.029Z,21.33
2022-08-28T04:14:18.751Z,21.40
2022-08-28T04:17:08.453Z,21.45
2022-08-28T04:19:57.475Z,21.58
2022-08-28T04:22:45.727Z,21.56
2022-08-28T04:25:34.581Z,21.74
2022-08-28T04:28:23.231Z,21.79
2022-08-28T04:31:13.489Z,21.77
2022-08-28T04:34:02.967Z,21.95
2022-08-28T04:36:52.395Z,21.92
2022-08-28T04:39:40.663Z,21.78
2022-08-28T04:42:29.201Z,22.06
2022-08-28T04:45:17.619Z,21.86
2022-08-28T04:48:10.507Z,22.07
2022-08-28T04:51:01.967Z,22.28
2022-08-28T04:53:50.365Z,22.08
2022-08-28T04:56:41.471Z,21.94
2022-08-28T04:59:30.670Z,22.23
2022-08-28T05:02:19.023Z,22.02
2022-08-28T05:05:09.584Z,22.10
2022-08-28T05:07:57.955Z,22.08
2022-08-28T05:10:47.145Z,21.67
2022-08-28T05:13:35.525Z,22.04
2022-08-28T05:16:24.282Z,22.30
2022-08-28T05:19:13.599Z,22.62
2022-08-28T05:22:03.283Z,22.72
2022-08-28T05:24:51.666Z,22.69
2022-08-28T05:27:40.826Z,22.61
2022-08-28T05:30:29.237Z,22.62
2022-08-28T05:33:17.634Z,22.86
2022-08-28T05:36:07.629Z,22.97
2022-08-28T05:38:59.049Z,23.08
2022-08-28T05:41:47.422Z,23.21
2022-08-28T05:44:35.839Z,23.24
2022-08-28T05:47:24.087Z,23.04
2022-08-28T05:50:13.705Z,23.28
2022-08-28T05:53:02.664Z,22.61
2022-08-28T05:55:52.753Z,23.41
2022-08-28T05:58:41.458Z,23.61
2022-08-28T06:01:31.412Z,23.54
2022-08-28T06:04:23.425Z,23.61
2022-08-28T06:07:13.805Z,23.47
2022-08-28T06:10:02.308Z,23.87
2022-08-28T06:12:51.932Z,23.63
2022-08-28T06:15:43.098Z,23.31
2022-08-28T06:18:31.573Z,23.27
2022-08-28T06:21:20.895Z,23.18
2022-08-28T06:24:09.814Z,23.38
2022-08-28T06:26:59.483Z,23.06
2022-08-28T06:29:49.100Z,22.40
2022-08-28T06:32:37.421Z,22.16
2022-08-28T06:35:25.770Z,22.22
2022-08-28T06:38:14.347Z,22.54
2022-08-28T06:41:02.862Z,22.04
2022-08-28T06:43:51.288Z,22.52
2022-08-28T06:46:42.096Z,22.16
2022-08-28T06:49:30.473Z,22.63
2022-08-28T06:52:18.861Z,23.15
2022-08-28T06:55:08.238Z,23.15
2022-08-28T06:57:56.575Z,23.40
2022-08-28T07:00:44.880Z,23.45
2022-08-28T07:03:35.133Z,23.52
2022-08-28T07:06:25.213Z,23.63
2022-08-28T07:09:13.653Z,23.52
2022-08-28T07:12:02.527Z,23.45
2022-08-28T07:14:50.800Z,23.45
2022-08-28T07:17:39.267Z,23.25
2022-08-28T07:20:28.955Z,23.52
2022-08-28T07:23:17.233Z,23.76
2022-08-28T07:26:07.471Z,23.65
2022-08-28T07:29:00.687Z,23.69
2022-08-28T07:31:59.660Z,23.94
2022-08-28T07:34:47.917Z,23.63
2022-08-28T07:37:40.923Z,24.38
2022-08-28T07:40:29.685Z,24.25
2022-08-28T07:43:36.068Z,24.64
2022-08-28T07:46:25.699Z,24.88
2022-08-28T07:49:17.201Z,24.71
2022-08-28T07:52:07.187Z,25.03
2022-08-28T07:54:57.547Z,25.22
2022-08-28T07:57:46.860Z,25.10
2022-08-28T08:00:35.187Z,24.81
2022-08-28T08:03:23.833Z,25.24
2022-08-28T08:06:13.787Z,25.44
2022-08-28T08:09:02.161Z,25.27
2022-08-28T08:11:51.817Z,25.12
2022-08-28T08:14:41.233Z,24.88
2022-08-28T08:17:30.271Z,25.04
2022-08-28T08:20:18.777Z,24.76
2022-08-28T08:23:07.074Z,24.38
2022-08-28T08:25:57.189Z,25.12
2022-08-28T08:28:47.201Z,25.02
2022-08-28T08:31:35.612Z,25.08
2022-08-28T08:34:24.011Z,25.85
2022-08-28T08:37:13.678Z,26.03
2022-08-28T08:40:02.070Z,26.25
2022-08-28T08:42:55.696Z,25.58
2022-08-28T08:45:47.544Z,26.13
2022-08-28T08:48:39.766Z,26.55
2022-08-28T08:51:40.717Z,26.01
2022-08-28T08:54:29.947Z,26.81
2022-08-28T08:57:18.668Z,27.31
2022-08-28T09:00:14.983Z,27.47
2022-08-28T09:03:08.194Z,27.00
2022-08-28T09:06:01.181Z,27.39
2022-08-28T09:08:57.723Z,27.32
2022-08-28T09:11:56.501Z,27.23
2022-08-28T09:14:54.518Z,27.45
2022-08-28T09:17:48.711Z,27.71
2022-08-28T09:20:38.603Z,27.47
2022-08-28T09:23:29.832Z,27.93
2022-08-28T09:26:24.579Z,28.33
2022-08-28T09:29:18.583Z,28.62
2022-08-28T09:32:25.073Z,28.48
2022-08-28T09:35:16.675Z,28.38
2022-08-28T09:38:19.183Z,28.52
2022-08-28T09:41:29.117Z,28.70
2022-08-28T09:44:17.895Z,28.86
2022-08-28T09:47:06.390Z,29.02
2022-08-28T09:49:54.746Z,28.48
2022-08-28T09:52:43.216Z,28.13
2022-08-28T09:55:39.714Z,28.25
2022-08-28T09:58:35.176Z,28.72
2022-08-28T10:01:53.378Z,28.78
2022-08-28T10:04:52.422Z,29.36
2022-08-28T10:07:49.098Z,29.44
2022-08-28T10:10:46.591Z,29.50
2022-08-28T10:13:45.690Z,28.89
2022-08-28T10:16:43.786Z,29.20
2022-08-28T10:19:45.176Z,29.17
2022-08-28T10:22:44.906Z,28.67
2022-08-28T10:25:48.359Z,29.31
2022-08-28T10:28:48.080Z,29.50
2022-08-28T10:31:44.066Z,29.31
2022-08-28T10:34:42.181Z,29.28
2022-08-28T10:37:43.407Z,28.55
2022-08-28T10:40:37.700Z,29.10
2022-08-28T10:43:32.847Z,28.28
2022-08-28T10:46:27.229Z,28.38
2022-08-28T10:49:24.696Z,28.50
2022-08-28T10:52:17.330Z,28.33
2022-08-28T10:55:09.358Z,28.85
2022-08-28T10:58:02.561Z,28.95
2022-08-28T11:00:53.532Z,29.12
2022-08-28T11:03:46.183Z,29.12
2022-08-28T11:06:40.754Z,28.94
2022-08-28T11:09:32.918Z,29.13
2022-08-28T11:12:37.889Z,28.40
2022-08-28T11:15:49.510Z,28.34
2022-08-28T11:19:08.288Z,28.81
2022-08-28T11:22:02.927Z,29.00
2022-08-28T11:25:04.368Z,29.05
2022-08-28T11:28:16.317Z,28.76
2022-08-28T11:31:31.663Z,28.90
2022-08-28T11:34:59.453Z,28.43
2022-08-28T11:37:49.936Z,28.40
2022-08-28T11:40:58.066Z,28.33
2022-08-28T11:43:47.589Z,28.51
2022-08-28T11:46:37.385Z,28.79
2022-08-28T11:49:46.303Z,29.25
2022-08-28T11:52:54.369Z,29.46
2022-08-28T11:56:07.993Z,29.39
2022-08-28T11:59:08.165Z,29.67
2022-08-28T12:02:18.766Z,29.74
2022-08-28T12:05:10.953Z,30.00
2022-08-28T12:08:03.237Z,29.90
2022-08-28T12:10:58.007Z,29.95
2022-08-28T12:13:50.449Z,30.11
2022-08-28T12:17:11.807Z,29.87
2022-08-28T12:20:09.193Z,30.11
2022-08-28T12:23:00.258Z,29.88
2022-08-28T12:25:50.668Z,29.80
2022-08-28T12:28:45.888Z,30.17
2022-08-28T12:32:12.750Z,30.35
2022-08-28T12:35:22.045Z,30.52
2022-08-28T12:38:18.558Z,30.21
2022-08-28T12:41:17.013Z,30.80
2022-08-28T12:44:09.094Z,31.05
2022-08-28T12:46:58.247Z,30.38
2022-08-28T12:49:47.162Z,30.84
2022-08-28T12:52:35.575Z,30.91
2022-08-28T12:55:25.363Z,30.08
2022-08-28T12:58:30.687Z,29.98
2022-08-28T13:01:29.063Z,30.11
2022-08-28T13:04:29.293Z,30.68
2022-08-28T13:07:24.449Z,31.06
2022-08-28T13:10:21.819Z,31.74
2022-08-28T13:13:19.586Z,31.53
2022-08-28T13:16:11.299Z,31.63
2022-08-28T13:19:25.131Z,31.67
2022-08-28T13:22:35.478Z,32.27
2022-08-28T13:25:27.330Z,31.41
2022-08-28T13:28:17.790Z,32.15
2022-08-28T13:31:06.791Z,32.70
2022-08-28T13:34:09.899Z,31.55
2022-08-28T13:37:01.266Z,32.81
2022-08-28T13:39:49.681Z,32.18
2022-08-28T13:42:38.280Z,31.95
2022-08-28T13:45:26.735Z,31.90
2022-08-28T13:48:17.130Z,31.25
2022-08-28T13:51:20.171Z,29.29
2022-08-28T13:54:09.608Z,30.12
2022-08-28T13:57:01.125Z,31.32
2022-08-28T13:59:53.550Z,31.30
2022-08-28T14:03:01.564Z,31.93
2022-08-28T14:05:49.812Z,32.91
2022-08-28T14:08:40.049Z,32.33
2022-08-28T14:11:28.357Z,32.43
2022-08-28T14:14:17.882Z,31.25
2022-08-28T14:17:06.758Z,31.56
2022-08-28T14:19:55.245Z,32.29
2022-08-28T14:22:43.645Z,32.71
2022-08-28T14:25:37.169Z,31.99
2022-08-28T14:28:27.415Z,31.33
2022-08-28T14:31:15.807Z,30.42
2022-08-28T14:34:05.429Z,30.55
2022-08-28T14:36:55.421Z,30.61
2022-08-28T14:39:43.823Z,30.58
2022-08-28T14:42:33.587Z,29.03
2022-08-28T14:45:21.913Z,28.77
2022-08-28T14:48:10.412Z,28.84
2022-08-28T14:50:58.739Z,28.98
2022-08-28T14:53:47.141Z,29.77
2022-08-28T14:56:36.185Z,30.36
2022-08-28T14:59:28.853Z,29.91
2022-08-28T15:02:17.179Z,30.15
2022-08-28T15:05:06.077Z,29.96
2022-08-28T15:07:54.480Z,28.71
2022-08-28T15:10:44.455Z,27.64
2022-08-28T15:13:32.747Z,26.95
2022-08-28T15:16:29.919Z,26.08
2022-08-28T15:19:19.702Z,25.62
2022-08-28T15:22:08.050Z,24.70
2022-08-28T15:24:56.415Z,24.63
2022-08-28T15:27:44.775Z,24.64
2022-08-28T15:30:34.729Z,23.92
2022-08-28T15:33:24.383Z,23.92
2022-08-28T15:36:12.889Z,23.46
2022-08-28T15:39:19.148Z,22.90
2022-08-28T15:42:08.882Z,23.14
2022-08-28T15:44:57.672Z,23.23
2022-08-28T15:47:46.196Z,23.02
2022-08-28T15:50:36.404Z,22.90
2022-08-28T15:53:25.295Z,22.34
2022-08-28T15:56:15.347Z,21.96
2022-08-28T15:59:03.761Z,21.75
2022-08-28T16:01:52.484Z,21.40
2022-08-28T16:04:40.995Z,21.24
2022-08-28T16:07:30.721Z,21.21
2022-08-28T16:10:20.343Z,20.97
2022-08-28T16:13:08.783Z,20.85
2022-08-28T16:15:57.181Z,21.39
2022-08-28T16:18:45.730Z,21.08
2022-08-28T16:21:34.597Z,20.74
2022-08-28T16:24:24.229Z,21.01
2022-08-28T16:27:15.409Z,20.67
2022-08-28T16:30:05.291Z,20.48
2022-08-28T16:32:54.201Z,20.31
2022-08-28T16:35:49.477Z,20.62
2022-08-28T16:38:45.632Z,20.63
2022-08-28T16:41:35.251Z,20.78
2022-08-28T16:44:25.534Z,20.72
2022-08-28T16:47:14.339Z,20.60
2022-08-28T16:50:07.260Z,20.82
2022-08-28T16:52:55.626Z,20.65
2022-08-28T16:55:46.995Z,20.56
2022-08-28T16:58:36.874Z,20.70
2022-08-28T17:01:25.543Z,20.59
2022-08-28T17:04:13.958Z,20.46
2022-08-28T17:07:02.760Z,20.69
2022-08-28T17:09:51.107Z,21.12
2022-08-28T17:12:39.493Z,21.08
2022-08-28T17:15:29.427Z,21.19
2022-08-28T17:18:17.894Z,21.06
2022-08-28T17:21:24.462Z,20.82
2022-08-28T17:24:13.655Z,21.04
2022-08-28T17:27:05.426Z,20.95
2022-08-28T17:29:54.299Z,20.97
2022-08-28T17:32:44.058Z,20.77
2022-08-28T17:35:32.398Z,20.82
2022-08-28T17:38:30.402Z,20.90
2022-08-28T17:41:18.758Z,21.27
2022-08-28T17:44:07.384Z,21.10
2022-08-28T17:46:55.661Z,21.45
2022-08-28T17:49:45.617Z,21.69
2022-08-28T17:52:35.025Z,21.12
2022-08-28T17:55:23.367Z,21.17
2022-08-28T17:58:11.886Z,21.32
2022-08-28T18:01:00.398Z,21.65
2022-08-28T18:03:53.464Z,21.37
2022-08-28T18:06:43.479Z,21.67
2022-08-28T18:09:31.912Z,21.48
2022-08-28T18:12:20.948Z,21.55
2022-08-28T18:15:12.304Z,21.44
2022-08-28T18:18:01.529Z,21.39
2022-08-28T18:20:50.049Z,21.60
2022-08-28T18:23:43.253Z,21.48
2022-08-28T18:26:32.092Z,21.33
2022-08-28T18:29:20.357Z,21.32
2022-08-28T18:32:08.999Z,21.58
2022-08-28T18:34:57.389Z,21.25
2022-08-28T18:37:45.687Z,21.47
2022-08-28T18:40:39.599Z,21.40
2022-08-28T18:43:28.212Z,21.50
2022-08-28T18:46:16.645Z,21.38
2022-08-28T18:49:05.045Z,21.43
2022-08-28T18:51:53.821Z,21.31
2022-08-28T18:54:42.133Z,21.44
2022-08-28T18:57:33.594Z,21.26
2022-08-28T19:00:22.061Z,21.16
2022-08-28T19:03:11.001Z,21.52
2022-08-28T19:05:59.402Z,21.28
2022-08-28T19:08:47.797Z,21.58
2022-08-28T19:11:36.421Z,21.26
2022-08-28T19:14:26.443Z,21.31
2022-08-28T19:17:19.150Z,21.43
2022-08-28T19:20:12.986Z,20.95
2022-08-28T19:23:02.126Z,20.87
2022-08-28T19:25:50.519Z,20.92
2022-08-28T19:28:39.019Z,20.76
2022-08-28T19:31:29.722Z,21.10
2022-08-28T19:34:18.385Z,20.81
2022-08-28T19:37:06.946Z,20.79
2022-08-28T19:39:56.399Z,20.72
2022-08-28T19:42:46.286Z,20.50
2022-08-28T19:45:35.090Z,20.22
2022-08-28T19:48:25.073Z,20.63
2022-08-28T19:51:22.294Z,20.92
2022-08-28T19:54:14.304Z,20.60
2022-08-28T19:57:02.624Z,20.84
2022-08-28T19:59:50.884Z,20.16
2022-08-28T20:02:39.271Z,20.52
2022-08-28T20:05:29.190Z,20.32
2022-08-28T20:08:18.089Z,20.18
2022-08-28T20:11:06.422Z,20.31
2022-08-28T20:13:56.549Z,20.42
2022-08-28T20:16:47.218Z,20.19
2022-08-28T20:19:36.011Z,20.51
2022-08-28T20:22:25.798Z,20.18
2022-08-28T20:25:15.610Z,20.13
2022-08-28T20:28:04.940Z,20.03
2022-08-28T20:30:53.318Z,19.67
2022-08-28T20:33:42.473Z,19.83
2022-08-28T20:36:30.693Z,19.90
2022-08-28T20:39:21.632Z,19.86
2022-08-28T20:42:11.806Z,19.90
2022-08-28T20:45:00.600Z,19.74
2022-08-28T20:47:49.718Z,19.94
2022-08-28T20:50:37.953Z,19.97
2022-08-28T20:53:37.150Z,20.01
2022-08-28T20:56:27.583Z,19.80
2022-08-28T20:59:16.243Z,19.86
2022-08-28T21:02:05.964Z,19.96
2022-08-28T21:04:55.410Z,20.22
2022-08-28T21:07:43.958Z,20.55
2022-08-28T21:10:32.594Z,20.47
2022-08-28T21:13:22.295Z,20.27
2022-08-28T21:16:10.642Z,20.32
2022-08-28T21:19:15.333Z,20.17
2022-08-28T21:22:04.553Z,19.99
2022-08-28T21:24:53.574Z,20.31
2022-08-28T21:27:41.980Z,20.16
2022-08-28T21:30:31.892Z,20.11
2022-08-28T21:33:20.262Z,20.29
2022-08-28T21:36:10.164Z,20.02
2022-08-28T21:38:58.804Z,20.27
2022-08-28T21:41:47.598Z,20.29
2022-08-28T21:44:35.957Z,20.29
2022-08-28T21:47:26.569Z,20.31
2022-08-28T21:50:16.809Z,20.23
2022-08-28T21:53:05.310Z,19.74
2022-08-28T21:55:55.819Z,20.04
2022-08-28T21:58:44.325Z,20.30
2022-08-28T22:01:32.908Z,20.03
2022-08-28T22:04:22.689Z,20.27
2022-08-28T22:07:12.053Z,20.06
2022-08-28T22:10:00.430Z,20.06
2022-08-28T22:12:48.770Z,20.23
2022-08-28T22:15:37.104Z,20.26
2022-08-28T22:18:31.984Z,20.27
2022-08-28T22:21:59.715Z,20.28
2022-08-28T22:24:47.953Z,20.21
2022-08-28T22:27:36.261Z,20.10
2022-08-28T22:30:24.685Z,20.45
2022-08-28T22:33:13.878Z,20.07
2022-08-28T22:36:02.248Z,20.15
2022-08-28T22:38:53.370Z,20.62
2022-08-28T22:41:42.187Z,20.45
2022-08-28T22:44:31.230Z,20.26
2022-08-28T22:47:19.805Z,20.34
2022-08-28T22:50:09.337Z,20.08
2022-08-28T22:52:57.678Z,20.42
2022-08-28T22:55:47.345Z,20.41
2022-08-28T22:58:36.167Z,20.80
2022-08-28T23:01:26.173Z,20.29
2022-08-28T23:04:14.543Z,20.64
2022-08-28T23:07:02.861Z,20.84
2022-08-28T23:09:51.305Z,20.35
2022-08-28T23:12:41.552Z,20.26
2022-08-28T23:15:30.101Z,20.58
2022-08-28T23:18:18.991Z,20.23
2022-08-28T23:21:08.801Z,20.35
2022-08-28T23:23:58.387Z,20.06
2022-08-28T23:26:47.037Z,20.01
2022-08-28T23:29:36.774Z,20.10
2022-08-28T23:32:25.171Z,19.76
2022-08-28T23:35:15.459Z,20.53
2022-08-28T23:38:04.379Z,20.38
2022-08-28T23:40:54.188Z,20.25
2022-08-28T23:43:42.427Z,20.13
2022-08-28T23:46:32.180Z,20.12
2022-08-28T23:49:24.919Z,20.14
2022-08-28T23:52:15.102Z,20.34
2022-08-28T23:55:03.899Z,20.66
2022-08-28T23:57:52.495Z,19.95
